createdAt,value
2023-04-07T00:02:24.226Z,6.47
2023-04-07T00:07:52.276Z,12.57
2023-04-07T00:13:12.203Z,8.35
2023-04-07T00:18:28.195Z,8.10
2023-04-07T00:23:44.238Z,9.77
2023-04-07T00:29:01.052Z,9.18
2023-04-07T00:34:16.781Z,8.18
2023-04-07T00:39:33.499Z,6.97
2023-04-07T00:44:49.205Z,12.98
2023-04-07T00:50:05.638Z,8.13
2023-04-07T00:55:21.784Z,6.40
2023-04-07T01:00:53.940Z,9.25
2023-04-07T01:06:11.547Z,7.65
2023-04-07T01:12:05.607Z,6.82
2023-04-07T01:17:26.357Z,9.32
2023-04-07T01:28:22.953Z,9.68
2023-04-07T01:33:40.476Z,11.63
2023-04-07T01:38:57.141Z,4.93
2023-04-07T01:44:14.585Z,10.63
2023-04-07T01:49:32.468Z,7.18
2023-04-07T01:54:49.682Z,4.60
2023-04-07T02:00:06.631Z,6.15
2023-04-07T02:05:23.013Z,7.57
2023-04-07T02:10:39.674Z,5.40
2023-04-07T02:15:56.608Z,7.25
2023-04-07T02:21:15.490Z,5.55
2023-04-07T02:26:37.030Z,10.07
2023-04-07T02:31:52.655Z,5.03
2023-04-07T02:37:08.734Z,4.65
2023-04-07T02:42:25.243Z,16.80
2023-04-07T02:47:41.201Z,11.70
2023-04-07T02:52:57.046Z,12.15
2023-04-07T02:58:12.857Z,16.52
2023-04-07T03:03:29.426Z,9.70
2023-04-07T03:08:45.539Z,7.32
2023-04-07T03:14:01.474Z,8.88
2023-04-07T03:19:16.978Z,7.40
2023-04-07T03:24:33.156Z,8.02
2023-04-07T03:29:49.081Z,7.45
2023-04-07T03:35:05.531Z,6.10
2023-04-07T03:40:22.072Z,7.68
2023-04-07T03:45:38.271Z,10.88
2023-04-07T03:50:54.013Z,8.43
2023-04-07T03:56:09.709Z,10.43
2023-04-07T04:01:25.136Z,9.13
2023-04-07T04:06:41.128Z,6.57
2023-04-07T04:11:57.317Z,7.15
2023-04-07T04:17:13.417Z,6.43
2023-04-07T04:22:29.279Z,7.05
2023-04-07T04:27:44.586Z,12.07
2023-04-07T04:32:59.996Z,10.50
2023-04-07T04:38:16.580Z,9.25
2023-04-07T04:43:32.457Z,13.93
2023-04-07T04:48:48.517Z,7.13
2023-04-07T04:54:06.554Z,13.65
2023-04-07T04:59:22.859Z,15.25
2023-04-07T05:04:39.074Z,12.20
2023-04-07T05:09:54.945Z,15.98
2023-04-07T05:15:11.236Z,10.32
2023-04-07T05:20:27.241Z,9.75
2023-04-07T05:25:43.223Z,12.30
2023-04-07T05:30:59.071Z,8.75
2023-04-07T05:36:14.936Z,16.60
2023-04-07T05:41:30.839Z,11.38
2023-04-07T05:46:46.924Z,14.60
2023-04-07T05:52:03.754Z,10.23
2023-04-07T05:57:19.359Z,12.55
2023-04-07T06:02:34.860Z,9.48
2023-04-07T06:07:50.912Z,12.02
2023-04-07T06:13:06.843Z,7.85
2023-04-07T06:18:23.327Z,14.90
2023-04-07T06:23:39.094Z,9.60
2023-04-07T06:28:54.794Z,8.45
2023-04-07T06:34:10.673Z,8.13
2023-04-07T06:39:28.166Z,14.75
2023-04-07T06:44:44.108Z,5.30
2023-04-07T06:50:00.154Z,6.20
2023-04-07T06:55:16.402Z,13.43
2023-04-07T07:00:32.727Z,4.95
2023-04-07T07:05:50.371Z,3.25
2023-04-07T07:11:06.550Z,3.90
2023-04-07T07:16:24.375Z,4.88
2023-04-07T07:21:39.796Z,6.80
2023-04-07T07:26:57.510Z,5.40
2023-04-07T07:32:13.259Z,6.13
2023-04-07T07:37:29.104Z,6.28
2023-04-07T07:42:47.321Z,4.22
2023-04-07T07:48:03.169Z,5.00
2023-04-07T07:53:19.698Z,4.10
2023-04-07T07:58:35.658Z,8.05
2023-04-07T08:03:51.677Z,3.75
2023-04-07T08:09:07.799Z,5.38
2023-04-07T08:14:23.697Z,4.13
2023-04-07T08:19:39.037Z,7.18
2023-04-07T08:24:54.357Z,4.90
2023-04-07T08:30:10.675Z,5.13
2023-04-07T08:35:26.536Z,7.55
2023-04-07T08:40:42.942Z,4.57
2023-04-07T08:45:58.962Z,7.35
2023-04-07T08:51:15.884Z,5.38
2023-04-07T08:56:34.201Z,4.75
2023-04-07T09:01:50.457Z,4.25
2023-04-07T09:07:05.994Z,5.72
2023-04-07T09:12:21.356Z,5.68
2023-04-07T09:17:37.384Z,5.68
2023-04-07T09:22:53.384Z,7.57
2023-04-07T09:28:09.403Z,8.18
2023-04-07T09:33:28.992Z,7.57
2023-04-07T09:38:46.214Z,7.47
2023-04-07T09:44:01.622Z,7.75
2023-04-07T09:49:18.059Z,6.93
2023-04-07T09:54:41.956Z,3.42
2023-04-07T09:59:58.549Z,5.85
2023-04-07T10:05:14.314Z,4.18
2023-04-07T10:10:31.895Z,5.68
2023-04-07T10:15:49.244Z,4.60
2023-04-07T10:21:09.472Z,3.67
2023-04-07T10:26:29.609Z,5.30
2023-04-07T10:31:45.848Z,4.30
2023-04-07T10:37:14.789Z,4.72
2023-04-07T10:42:39.855Z,5.25
2023-04-07T10:47:58.432Z,10.05
2023-04-07T10:53:15.774Z,4.60
2023-04-07T10:58:32.888Z,6.70
2023-04-07T11:03:57.360Z,2.33
2023-04-07T11:09:20.220Z,3.28
2023-04-07T11:14:37.736Z,4.80
2023-04-07T11:19:53.955Z,3.53
2023-04-07T11:25:23.181Z,5.53
2023-04-07T11:30:39.282Z,7.05
2023-04-07T11:35:57.903Z,7.43
2023-04-07T11:41:15.782Z,3.90
2023-04-07T11:46:31.704Z,2.88
2023-04-07T11:51:47.727Z,3.35
2023-04-07T11:57:03.940Z,3.58
2023-04-07T12:02:37.233Z,2.42
2023-04-07T12:07:54.748Z,6.40
2023-04-07T12:13:10.637Z,3.80
2023-04-07T12:18:26.242Z,5.32
2023-04-07T12:23:43.323Z,3.92
2023-04-07T12:29:05.484Z,3.53
2023-04-07T12:34:21.991Z,4.68
2023-04-07T12:39:37.456Z,5.63
2023-04-07T12:44:53.321Z,4.13
2023-04-07T12:50:09.485Z,3.38
2023-04-07T12:55:25.691Z,3.72
2023-04-07T13:00:42.029Z,3.40
2023-04-07T13:06:01.414Z,2.40
2023-04-07T13:11:17.152Z,5.65
2023-04-07T13:16:33.140Z,4.32
2023-04-07T13:21:49.314Z,2.90
2023-04-07T13:27:05.343Z,3.17
2023-04-07T13:32:21.558Z,1.38
2023-04-07T13:37:37.467Z,4.47
2023-04-07T13:42:53.367Z,3.10
2023-04-07T13:48:09.269Z,3.42
2023-04-07T13:53:25.263Z,3.25
2023-04-07T13:58:40.700Z,3.97
2023-04-07T14:04:00.743Z,2.58
2023-04-07T14:09:16.650Z,3.47
2023-04-07T14:14:32.579Z,1.70
2023-04-07T14:19:48.415Z,2.75
2023-04-07T14:25:04.261Z,2.58
2023-04-07T14:30:20.131Z,2.40
2023-04-07T14:35:38.189Z,4.13
2023-04-07T14:40:54.448Z,1.85
2023-04-07T14:46:10.562Z,2.00
2023-04-07T14:51:26.395Z,3.80
2023-04-07T14:56:42.417Z,2.88
2023-04-07T15:01:58.316Z,1.85
2023-04-07T15:07:14.358Z,3.65
2023-04-07T15:12:31.754Z,2.15
2023-04-07T15:17:47.462Z,2.10
2023-04-07T15:23:03.698Z,2.45
2023-04-07T15:28:19.532Z,3.83
2023-04-07T15:33:37.061Z,2.28
2023-04-07T15:38:53.022Z,3.90
2023-04-07T15:44:08.543Z,1.70
2023-04-07T15:49:26.121Z,3.45
2023-04-07T15:54:41.946Z,1.35
2023-04-07T15:59:57.700Z,3.97
2023-04-07T16:05:13.768Z,2.75
2023-04-07T16:10:29.631Z,2.30
2023-04-07T16:15:45.838Z,2.05
2023-04-07T16:21:03.015Z,3.28
2023-04-07T16:26:19.898Z,2.63
2023-04-07T16:31:35.862Z,2.42
2023-04-07T16:36:51.744Z,4.03
2023-04-07T16:42:07.647Z,3.15
2023-04-07T16:47:25.001Z,4.68
2023-04-07T16:52:40.920Z,3.30
2023-04-07T16:57:56.705Z,3.83
2023-04-07T17:03:15.667Z,3.60
2023-04-07T17:08:36.597Z,6.45
2023-04-07T17:13:57.130Z,3.10
2023-04-07T17:19:13.367Z,4.57
2023-04-07T17:24:29.413Z,4.18
2023-04-07T17:29:45.145Z,3.40
2023-04-07T17:35:01.373Z,3.42
2023-04-07T17:40:17.094Z,3.58
2023-04-07T17:45:33.226Z,2.47
2023-04-07T17:50:51.756Z,8.30
2023-04-07T17:56:07.686Z,5.10
2023-04-07T18:01:23.912Z,5.10
2023-04-07T18:06:40.054Z,3.83
2023-04-07T18:11:55.838Z,4.32
2023-04-07T18:17:11.770Z,4.63
2023-04-07T18:22:28.412Z,4.55
2023-04-07T18:27:44.518Z,3.00
2023-04-07T18:33:00.136Z,4.15
2023-04-07T18:38:16.239Z,2.33
2023-04-07T18:43:32.249Z,8.65
2023-04-07T18:48:48.176Z,7.53
2023-04-07T18:54:04.238Z,7.70
2023-04-07T18:59:20.453Z,6.25
2023-04-07T19:04:36.344Z,5.45
2023-04-07T19:09:53.970Z,6.85
2023-04-07T19:15:10.334Z,7.03
2023-04-07T19:20:26.492Z,4.90
2023-04-07T19:25:43.837Z,8.90
2023-04-07T19:31:01.688Z,6.18
2023-04-07T19:36:17.184Z,4.13
2023-04-07T19:41:33.245Z,6.40
2023-04-07T19:46:49.332Z,6.80
2023-04-07T19:52:05.333Z,9.57
2023-04-07T19:57:21.369Z,9.27
2023-04-07T20:02:38.213Z,6.97
2023-04-07T20:07:54.344Z,9.15
2023-04-07T20:13:10.585Z,7.28
2023-04-07T20:18:28.805Z,8.25
2023-04-07T20:23:44.595Z,8.88
2023-04-07T20:29:00.148Z,14.43
2023-04-07T20:34:16.664Z,16.63
2023-04-07T20:39:32.957Z,16.88
2023-04-07T20:44:49.547Z,10.63
2023-04-07T20:50:06.752Z,16.08
2023-04-07T20:55:22.752Z,12.20
2023-04-07T21:00:38.621Z,22.52
2023-04-07T21:05:55.526Z,15.75
2023-04-07T21:11:11.317Z,13.45
2023-04-07T21:16:27.154Z,21.30
2023-04-07T21:21:43.077Z,13.57
2023-04-07T21:26:59.074Z,18.02
2023-04-07T21:32:15.663Z,15.68
2023-04-07T21:37:31.494Z,17.42
2023-04-07T21:42:47.639Z,11.65
2023-04-07T21:48:03.972Z,15.85
2023-04-07T21:53:19.856Z,18.42
2023-04-07T21:58:37.608Z,18.77
2023-04-07T22:03:53.187Z,20.58
2023-04-07T22:09:09.908Z,17.13
2023-04-07T22:14:26.648Z,21.52
2023-04-07T22:19:42.628Z,17.98
2023-04-07T22:24:58.262Z,14.40
2023-04-07T22:30:14.263Z,14.27
2023-04-07T22:35:30.128Z,17.20
2023-04-07T22:40:46.208Z,19.58
2023-04-07T22:46:02.514Z,19.63
2023-04-07T22:51:18.435Z,18.92
2023-04-07T22:56:34.268Z,13.25
2023-04-07T23:01:51.023Z,15.43
2023-04-07T23:07:07.004Z,24.45
2023-04-07T23:12:22.745Z,12.38
2023-04-07T23:17:38.824Z,16.23
2023-04-07T23:22:54.849Z,13.18
2023-04-07T23:28:10.746Z,17.05
2023-04-07T23:33:26.751Z,12.73
2023-04-07T23:38:42.754Z,19.65
2023-04-07T23:43:58.577Z,26.45
2023-04-07T23:49:14.479Z,15.40
2023-04-07T23:54:30.969Z,11.80
2023-04-07T23:59:46.874Z,16.42
